Weather at Clipperton Island Landing Strip [CLOSED]

Public forecast

Using degrees Celsius for public forecast. Weather courtesy of forecast.io.

Closest aviation weather report (METAR) to Clipperton Island Landing Strip

Closest report is San José Airport, 1,101.1 nm (2,039.2 km) ENE. Retrieved 2020/10/20 22:00 UTC (28 minutes ago):

MGSJ 202200Z 00000KT 8000 -TSRA SCT014 FEW032CB BKN070 29/26 Q1007 A2974 CB/TS/LTNG/NNW

Closest aviation forecast (TAF) to Clipperton Island Landing Strip

Closest forecast is San José Airport, 1,101.1 nm (2,039.2 km) ENE. Retrieved 2020/10/20 18:06 UTC (4 hours ago):

TAF MGSJ 201700Z 2018/2118 18008KT 9999 FEW020 TX31/2020Z TN23/2112Z PROB30 TEMPO 2021/2106 8000 TSRA SCT018 FEW025CB BECMG 2100/2102 00000KT SCT016 BECMG 2115/2117 18008KT FEW020